sensor_id;sensor_type;location;lat;lon;timestamp;P1;durP1;ratioP1;P2;durP2;ratioP2
7291;SDS011;3687;47.648;8.204;2022-08-19T00:01:51;1.33;;;1.30;;
7291;SDS011;3687;47.648;8.204;2022-08-19T00:04:19;2.80;;;1.83;;
7291;SDS011;3687;47.648;8.204;2022-08-19T00:06:47;4.00;;;1.53;;
7291;SDS011;3687;47.648;8.204;2022-08-19T00:09:13;1.97;;;1.30;;
7291;SDS011;3687;47.648;8.204;2022-08-19T00:11:41;2.80;;;1.57;;
7291;SDS011;3687;47.648;8.204;2022-08-19T00:14:09;2.70;;;1.40;;
7291;SDS011;3687;47.648;8.204;2022-08-19T00:16:36;1.73;;;1.63;;
7291;SDS011;3687;47.648;8.204;2022-08-19T00:19:03;2.30;;;1.90;;
7291;SDS011;3687;47.648;8.204;2022-08-19T00:21:29;1.70;;;1.60;;
7291;SDS011;3687;47.648;8.204;2022-08-19T00:23:55;2.17;;;2.07;;
7291;SDS011;3687;47.648;8.204;2022-08-19T00:26:23;3.27;;;1.93;;
7291;SDS011;3687;47.648;8.204;2022-08-19T00:28:49;2.43;;;2.17;;
7291;SDS011;3687;47.648;8.204;2022-08-19T00:31:15;3.23;;;1.97;;
7291;SDS011;3687;47.648;8.204;2022-08-19T00:33:41;2.20;;;2.10;;
7291;SDS011;3687;47.648;8.204;2022-08-19T00:36:07;3.77;;;2.47;;
7291;SDS011;3687;47.648;8.204;2022-08-19T00:38:35;3.40;;;2.27;;
7291;SDS011;3687;47.648;8.204;2022-08-19T00:41:03;2.63;;;2.43;;
7291;SDS011;3687;47.648;8.204;2022-08-19T00:43:30;3.10;;;2.57;;
7291;SDS011;3687;47.648;8.204;2022-08-19T00:45:56;2.50;;;2.30;;
7291;SDS011;3687;47.648;8.204;2022-08-19T00:48:22;2.50;;;2.27;;
7291;SDS011;3687;47.648;8.204;2022-08-19T00:50:48;2.47;;;2.27;;
7291;SDS011;3687;47.648;8.204;2022-08-19T00:53:16;3.20;;;2.80;;
7291;SDS011;3687;47.648;8.204;2022-08-19T00:55:47;3.37;;;3.07;;
7291;SDS011;3687;47.648;8.204;2022-08-19T00:58:16;3.20;;;2.90;;
7291;SDS011;3687;47.648;8.204;2022-08-19T01:00:45;3.63;;;3.13;;
7291;SDS011;3687;47.648;8.204;2022-08-19T01:03:13;3.90;;;3.27;;
7291;SDS011;3687;47.648;8.204;2022-08-19T01:05:41;5.20;;;3.00;;
7291;SDS011;3687;47.648;8.204;2022-08-19T01:08:08;3.00;;;2.80;;
7291;SDS011;3687;47.648;8.204;2022-08-19T01:10:48;4.97;;;3.00;;
7291;SDS011;3687;47.648;8.204;2022-08-19T01:13:20;5.00;;;3.00;;
7291;SDS011;3687;47.648;8.204;2022-08-19T01:15:50;3.80;;;3.10;;
7291;SDS011;3687;47.648;8.204;2022-08-19T01:18:21;3.40;;;3.10;;
7291;SDS011;3687;47.648;8.204;2022-08-19T01:20:48;3.57;;;3.20;;
7291;SDS011;3687;47.648;8.204;2022-08-19T01:23:14;3.73;;;3.30;;
7291;SDS011;3687;47.648;8.204;2022-08-19T01:25:47;3.23;;;2.93;;
7291;SDS011;3687;47.648;8.204;2022-08-19T01:28:19;3.77;;;3.37;;
7291;SDS011;3687;47.648;8.204;2022-08-19T01:30:47;3.13;;;2.83;;
7291;SDS011;3687;47.648;8.204;2022-08-19T01:33:13;3.20;;;3.00;;
7291;SDS011;3687;47.648;8.204;2022-08-19T01:35:39;3.30;;;3.10;;
7291;SDS011;3687;47.648;8.204;2022-08-19T01:38:06;3.50;;;3.30;;
7291;SDS011;3687;47.648;8.204;2022-08-19T01:40:36;3.30;;;3.00;;
7291;SDS011;3687;47.648;8.204;2022-08-19T01:43:05;5.13;;;3.50;;
7291;SDS011;3687;47.648;8.204;2022-08-19T01:45:31;3.40;;;2.90;;
7291;SDS011;3687;47.648;8.204;2022-08-19T01:47:59;3.17;;;2.97;;
7291;SDS011;3687;47.648;8.204;2022-08-19T01:50:25;3.00;;;2.70;;
7291;SDS011;3687;47.648;8.204;2022-08-19T01:52:50;4.03;;;3.23;;
7291;SDS011;3687;47.648;8.204;2022-08-19T01:55:18;3.30;;;3.00;;
7291;SDS011;3687;47.648;8.204;2022-08-19T01:57:46;3.07;;;2.77;;
7291;SDS011;3687;47.648;8.204;2022-08-19T02:00:16;5.00;;;3.00;;
7291;SDS011;3687;47.648;8.204;2022-08-19T02:02:43;3.37;;;3.10;;
7291;SDS011;3687;47.648;8.204;2022-08-19T02:05:09;3.90;;;2.90;;
7291;SDS011;3687;47.648;8.204;2022-08-19T02:07:35;3.50;;;3.20;;
7291;SDS011;3687;47.648;8.204;2022-08-19T02:10:06;3.27;;;3.07;;
7291;SDS011;3687;47.648;8.204;2022-08-19T02:12:35;3.47;;;3.17;;
7291;SDS011;3687;47.648;8.204;2022-08-19T02:15:00;4.47;;;3.70;;
7291;SDS011;3687;47.648;8.204;2022-08-19T02:17:27;3.93;;;3.30;;
7291;SDS011;3687;47.648;8.204;2022-08-19T02:19:54;3.43;;;3.13;;
7291;SDS011;3687;47.648;8.204;2022-08-19T02:22:21;3.43;;;3.20;;
7291;SDS011;3687;47.648;8.204;2022-08-19T02:24:47;3.50;;;3.20;;
7291;SDS011;3687;47.648;8.204;2022-08-19T02:27:13;3.40;;;3.20;;
7291;SDS011;3687;47.648;8.204;2022-08-19T02:29:40;3.77;;;3.47;;
7291;SDS011;3687;47.648;8.204;2022-08-19T02:32:06;4.23;;;2.97;;
7291;SDS011;3687;47.648;8.204;2022-08-19T02:34:32;3.40;;;3.20;;
7291;SDS011;3687;47.648;8.204;2022-08-19T02:36:59;3.40;;;3.10;;
7291;SDS011;3687;47.648;8.204;2022-08-19T02:39:25;4.30;;;3.53;;
7291;SDS011;3687;47.648;8.204;2022-08-19T02:41:51;5.97;;;3.63;;
7291;SDS011;3687;47.648;8.204;2022-08-19T02:44:17;4.47;;;3.83;;
7291;SDS011;3687;47.648;8.204;2022-08-19T02:46:44;3.80;;;3.47;;
7291;SDS011;3687;47.648;8.204;2022-08-19T02:49:11;4.00;;;3.33;;
7291;SDS011;3687;47.648;8.204;2022-08-19T02:51:38;3.70;;;3.50;;
7291;SDS011;3687;47.648;8.204;2022-08-19T02:54:09;4.03;;;3.23;;
7291;SDS011;3687;47.648;8.204;2022-08-19T02:56:37;3.63;;;3.23;;
7291;SDS011;3687;47.648;8.204;2022-08-19T02:59:05;3.27;;;3.07;;
7291;SDS011;3687;47.648;8.204;2022-08-19T03:01:33;3.60;;;3.20;;
7291;SDS011;3687;47.648;8.204;2022-08-19T03:03:59;3.63;;;3.33;;
7291;SDS011;3687;47.648;8.204;2022-08-19T03:06:28;4.80;;;3.80;;
7291;SDS011;3687;47.648;8.204;2022-08-19T03:08:54;4.97;;;3.70;;
7291;SDS011;3687;47.648;8.204;2022-08-19T03:13:51;4.10;;;3.80;;
7291;SDS011;3687;47.648;8.204;2022-08-19T03:16:18;3.70;;;3.40;;
7291;SDS011;3687;47.648;8.204;2022-08-19T03:18:45;4.80;;;3.77;;
7291;SDS011;3687;47.648;8.204;2022-08-19T03:21:14;4.20;;;3.70;;
7291;SDS011;3687;47.648;8.204;2022-08-19T03:23:53;3.83;;;3.53;;
7291;SDS011;3687;47.648;8.204;2022-08-19T03:26:20;4.40;;;4.00;;
7291;SDS011;3687;47.648;8.204;2022-08-19T03:28:46;4.30;;;3.87;;
7291;SDS011;3687;47.648;8.204;2022-08-19T03:31:15;4.23;;;3.57;;
7291;SDS011;3687;47.648;8.204;2022-08-19T03:33:42;4.60;;;3.47;;
7291;SDS011;3687;47.648;8.204;2022-08-19T03:38:37;5.87;;;3.80;;
7291;SDS011;3687;47.648;8.204;2022-08-19T03:41:06;4.03;;;3.70;;
7291;SDS011;3687;47.648;8.204;2022-08-19T03:43:34;7.80;;;4.00;;
7291;SDS011;3687;47.648;8.204;2022-08-19T03:46:05;4.33;;;3.93;;
7291;SDS011;3687;47.648;8.204;2022-08-19T03:48:33;4.30;;;4.00;;
7291;SDS011;3687;47.648;8.204;2022-08-19T03:50:59;4.10;;;3.80;;
7291;SDS011;3687;47.648;8.204;2022-08-19T03:53:29;4.13;;;3.77;;
7291;SDS011;3687;47.648;8.204;2022-08-19T03:55:55;4.27;;;3.90;;
7291;SDS011;3687;47.648;8.204;2022-08-19T03:58:21;4.20;;;3.80;;
7291;SDS011;3687;47.648;8.204;2022-08-19T04:00:47;5.90;;;4.27;;
7291;SDS011;3687;47.648;8.204;2022-08-19T04:03:12;4.27;;;3.87;;
7291;SDS011;3687;47.648;8.204;2022-08-19T04:05:39;4.67;;;4.03;;
7291;SDS011;3687;47.648;8.204;2022-08-19T04:08:05;4.00;;;3.60;;
7291;SDS011;3687;47.648;8.204;2022-08-19T04:10:31;4.83;;;4.43;;
7291;SDS011;3687;47.648;8.204;2022-08-19T04:13:00;5.10;;;4.63;;
7291;SDS011;3687;47.648;8.204;2022-08-19T04:15:27;4.43;;;4.13;;
7291;SDS011;3687;47.648;8.204;2022-08-19T04:17:56;5.43;;;4.77;;
7291;SDS011;3687;47.648;8.204;2022-08-19T04:20:21;4.93;;;4.50;;
7291;SDS011;3687;47.648;8.204;2022-08-19T04:22:47;4.63;;;4.23;;
7291;SDS011;3687;47.648;8.204;2022-08-19T04:25:12;5.27;;;4.77;;
7291;SDS011;3687;47.648;8.204;2022-08-19T04:27:38;5.53;;;5.03;;
7291;SDS011;3687;47.648;8.204;2022-08-19T04:30:04;5.20;;;4.67;;
7291;SDS011;3687;47.648;8.204;2022-08-19T04:32:30;5.67;;;4.90;;
7291;SDS011;3687;47.648;8.204;2022-08-19T04:34:56;6.03;;;4.43;;
7291;SDS011;3687;47.648;8.204;2022-08-19T04:37:24;4.40;;;4.10;;
7291;SDS011;3687;47.648;8.204;2022-08-19T04:39:51;4.87;;;4.47;;
7291;SDS011;3687;47.648;8.204;2022-08-19T04:42:35;5.00;;;4.60;;
7291;SDS011;3687;47.648;8.204;2022-08-19T04:45:04;4.97;;;4.57;;
7291;SDS011;3687;47.648;8.204;2022-08-19T04:47:35;5.23;;;4.73;;
7291;SDS011;3687;47.648;8.204;2022-08-19T04:50:02;5.23;;;4.67;;
7291;SDS011;3687;47.648;8.204;2022-08-19T04:52:28;6.90;;;5.60;;
7291;SDS011;3687;47.648;8.204;2022-08-19T04:54:56;5.03;;;4.63;;
7291;SDS011;3687;47.648;8.204;2022-08-19T04:57:22;5.83;;;5.33;;
7291;SDS011;3687;47.648;8.204;2022-08-19T04:59:48;5.47;;;5.00;;
7291;SDS011;3687;47.648;8.204;2022-08-19T05:02:14;6.93;;;4.60;;
7291;SDS011;3687;47.648;8.204;2022-08-19T05:04:40;5.13;;;4.73;;
7291;SDS011;3687;47.648;8.204;2022-08-19T05:07:06;4.90;;;4.50;;
7291;SDS011;3687;47.648;8.204;2022-08-19T05:09:32;5.20;;;4.80;;
7291;SDS011;3687;47.648;8.204;2022-08-19T05:11:59;6.33;;;5.47;;
7291;SDS011;3687;47.648;8.204;2022-08-19T05:14:25;5.47;;;5.07;;
7291;SDS011;3687;47.648;8.204;2022-08-19T05:16:50;5.53;;;5.03;;
7291;SDS011;3687;47.648;8.204;2022-08-19T05:19:16;7.00;;;5.43;;
7291;SDS011;3687;47.648;8.204;2022-08-19T05:22:00;5.90;;;5.40;;
7291;SDS011;3687;47.648;8.204;2022-08-19T05:24:44;6.00;;;5.40;;
7291;SDS011;3687;47.648;8.204;2022-08-19T05:27:10;7.73;;;5.20;;
7291;SDS011;3687;47.648;8.204;2022-08-19T05:29:35;5.00;;;4.60;;
7291;SDS011;3687;47.648;8.204;2022-08-19T05:32:02;5.93;;;5.43;;
7291;SDS011;3687;47.648;8.204;2022-08-19T05:34:30;5.10;;;4.70;;
7291;SDS011;3687;47.648;8.204;2022-08-19T05:36:58;5.40;;;4.90;;
7291;SDS011;3687;47.648;8.204;2022-08-19T05:39:26;5.67;;;5.23;;
7291;SDS011;3687;47.648;8.204;2022-08-19T05:41:57;5.40;;;4.90;;
7291;SDS011;3687;47.648;8.204;2022-08-19T05:44:25;5.83;;;5.33;;
7291;SDS011;3687;47.648;8.204;2022-08-19T05:46:53;5.57;;;5.13;;
7291;SDS011;3687;47.648;8.204;2022-08-19T05:49:20;6.30;;;5.27;;
7291;SDS011;3687;47.648;8.204;2022-08-19T05:51:47;5.10;;;4.60;;
7291;SDS011;3687;47.648;8.204;2022-08-19T05:54:14;5.30;;;4.90;;
7291;SDS011;3687;47.648;8.204;2022-08-19T05:56:40;5.50;;;5.00;;
7291;SDS011;3687;47.648;8.204;2022-08-19T05:59:08;5.50;;;5.00;;
7291;SDS011;3687;47.648;8.204;2022-08-19T06:01:37;5.00;;;4.60;;
7291;SDS011;3687;47.648;8.204;2022-08-19T06:04:05;5.60;;;5.10;;
7291;SDS011;3687;47.648;8.204;2022-08-19T06:06:31;6.07;;;5.57;;
7291;SDS011;3687;47.648;8.204;2022-08-19T06:08:59;6.27;;;5.07;;
7291;SDS011;3687;47.648;8.204;2022-08-19T06:14:00;5.60;;;5.20;;
7291;SDS011;3687;47.648;8.204;2022-08-19T06:16:28;5.50;;;5.10;;
7291;SDS011;3687;47.648;8.204;2022-08-19T06:18:56;6.03;;;5.53;;
7291;SDS011;3687;47.648;8.204;2022-08-19T06:21:25;5.93;;;4.93;;
7291;SDS011;3687;47.648;8.204;2022-08-19T06:23:52;6.03;;;5.53;;
7291;SDS011;3687;47.648;8.204;2022-08-19T06:26:19;7.30;;;5.77;;
7291;SDS011;3687;47.648;8.204;2022-08-19T06:28:46;6.83;;;6.13;;
7291;SDS011;3687;47.648;8.204;2022-08-19T06:31:13;6.00;;;5.37;;
7291;SDS011;3687;47.648;8.204;2022-08-19T06:33:46;5.77;;;5.27;;
7291;SDS011;3687;47.648;8.204;2022-08-19T06:36:22;6.17;;;5.57;;
7291;SDS011;3687;47.648;8.204;2022-08-19T06:38:52;6.03;;;5.43;;
7291;SDS011;3687;47.648;8.204;2022-08-19T06:41:18;6.00;;;5.27;;
7291;SDS011;3687;47.648;8.204;2022-08-19T06:43:44;5.50;;;5.07;;
7291;SDS011;3687;47.648;8.204;2022-08-19T06:46:11;5.37;;;4.97;;
7291;SDS011;3687;47.648;8.204;2022-08-19T06:48:38;5.60;;;5.20;;
7291;SDS011;3687;47.648;8.204;2022-08-19T06:51:03;5.97;;;5.37;;
7291;SDS011;3687;47.648;8.204;2022-08-19T06:53:30;6.67;;;5.47;;
7291;SDS011;3687;47.648;8.204;2022-08-19T06:55:56;5.83;;;5.33;;
7291;SDS011;3687;47.648;8.204;2022-08-19T06:58:25;5.60;;;5.10;;
7291;SDS011;3687;47.648;8.204;2022-08-19T07:00:51;7.57;;;5.20;;
7291;SDS011;3687;47.648;8.204;2022-08-19T07:03:16;6.33;;;4.97;;
7291;SDS011;3687;47.648;8.204;2022-08-19T07:05:42;6.67;;;5.50;;
7291;SDS011;3687;47.648;8.204;2022-08-19T07:08:08;5.90;;;5.30;;
7291;SDS011;3687;47.648;8.204;2022-08-19T07:10:34;6.10;;;5.47;;
7291;SDS011;3687;47.648;8.204;2022-08-19T07:13:01;5.87;;;5.27;;
7291;SDS011;3687;47.648;8.204;2022-08-19T07:15:28;5.73;;;5.13;;
7291;SDS011;3687;47.648;8.204;2022-08-19T07:17:54;5.67;;;5.17;;
7291;SDS011;3687;47.648;8.204;2022-08-19T07:20:20;5.40;;;4.90;;
7291;SDS011;3687;47.648;8.204;2022-08-19T07:22:46;5.70;;;5.20;;
7291;SDS011;3687;47.648;8.204;2022-08-19T07:25:12;5.60;;;5.10;;
7291;SDS011;3687;47.648;8.204;2022-08-19T07:27:38;7.53;;;5.10;;
7291;SDS011;3687;47.648;8.204;2022-08-19T07:30:04;5.90;;;4.67;;
7291;SDS011;3687;47.648;8.204;2022-08-19T07:32:30;5.70;;;5.30;;
7291;SDS011;3687;47.648;8.204;2022-08-19T07:34:55;5.13;;;4.60;;
7291;SDS011;3687;47.648;8.204;2022-08-19T07:37:21;5.80;;;5.27;;
7291;SDS011;3687;47.648;8.204;2022-08-19T07:39:47;6.90;;;6.30;;
7291;SDS011;3687;47.648;8.204;2022-08-19T07:42:12;6.00;;;5.50;;
7291;SDS011;3687;47.648;8.204;2022-08-19T07:44:39;6.43;;;5.83;;
7291;SDS011;3687;47.648;8.204;2022-08-19T07:47:05;6.20;;;5.70;;
7291;SDS011;3687;47.648;8.204;2022-08-19T07:49:32;5.83;;;5.37;;
7291;SDS011;3687;47.648;8.204;2022-08-19T07:51:59;6.03;;;5.30;;
7291;SDS011;3687;47.648;8.204;2022-08-19T07:54:29;6.07;;;4.80;;
7291;SDS011;3687;47.648;8.204;2022-08-19T07:56:58;5.63;;;5.00;;
7291;SDS011;3687;47.648;8.204;2022-08-19T07:59:24;5.83;;;5.33;;
7291;SDS011;3687;47.648;8.204;2022-08-19T08:01:50;6.33;;;5.40;;
7291;SDS011;3687;47.648;8.204;2022-08-19T08:04:16;5.63;;;5.20;;
7291;SDS011;3687;47.648;8.204;2022-08-19T08:07:01;5.00;;;4.60;;
7291;SDS011;3687;47.648;8.204;2022-08-19T08:09:46;5.73;;;5.33;;
7291;SDS011;3687;47.648;8.204;2022-08-19T08:12:16;5.27;;;4.77;;
7291;SDS011;3687;47.648;8.204;2022-08-19T08:14:48;5.23;;;4.77;;
7291;SDS011;3687;47.648;8.204;2022-08-19T08:17:17;4.77;;;4.37;;
7291;SDS011;3687;47.648;8.204;2022-08-19T08:19:44;5.33;;;4.87;;
7291;SDS011;3687;47.648;8.204;2022-08-19T08:22:12;5.37;;;4.87;;
7291;SDS011;3687;47.648;8.204;2022-08-19T08:25:15;4.83;;;4.43;;
7291;SDS011;3687;47.648;8.204;2022-08-19T08:27:44;5.20;;;4.77;;
7291;SDS011;3687;47.648;8.204;2022-08-19T08:30:15;5.27;;;4.80;;
7291;SDS011;3687;47.648;8.204;2022-08-19T08:32:43;4.83;;;4.17;;
7291;SDS011;3687;47.648;8.204;2022-08-19T08:35:10;5.90;;;4.70;;
7291;SDS011;3687;47.648;8.204;2022-08-19T08:37:38;5.13;;;4.73;;
7291;SDS011;3687;47.648;8.204;2022-08-19T08:40:05;5.10;;;4.70;;
7291;SDS011;3687;47.648;8.204;2022-08-19T08:42:39;4.37;;;4.07;;
7291;SDS011;3687;47.648;8.204;2022-08-19T08:45:16;4.93;;;4.37;;
7291;SDS011;3687;47.648;8.204;2022-08-19T08:47:44;5.20;;;4.60;;
7291;SDS011;3687;47.648;8.204;2022-08-19T08:50:22;4.93;;;4.27;;
7291;SDS011;3687;47.648;8.204;2022-08-19T08:53:00;4.50;;;4.10;;
7291;SDS011;3687;47.648;8.204;2022-08-19T08:55:29;5.07;;;4.57;;
7291;SDS011;3687;47.648;8.204;2022-08-19T08:57:59;4.70;;;4.30;;
7291;SDS011;3687;47.648;8.204;2022-08-19T09:00:33;6.30;;;3.83;;
7291;SDS011;3687;47.648;8.204;2022-08-19T09:03:03;4.60;;;4.20;;
7291;SDS011;3687;47.648;8.204;2022-08-19T09:11:24;4.47;;;4.07;;
7291;SDS011;3687;47.648;8.204;2022-08-19T09:14:09;4.30;;;4.00;;
7291;SDS011;3687;47.648;8.204;2022-08-19T09:16:36;5.23;;;3.93;;
7291;SDS011;3687;47.648;8.204;2022-08-19T09:19:04;4.87;;;4.00;;
7291;SDS011;3687;47.648;8.204;2022-08-19T09:21:30;4.00;;;3.70;;
7291;SDS011;3687;47.648;8.204;2022-08-19T09:23:57;4.43;;;4.03;;
7291;SDS011;3687;47.648;8.204;2022-08-19T09:26:23;4.77;;;4.37;;
7291;SDS011;3687;47.648;8.204;2022-08-19T09:28:50;4.63;;;4.23;;
7291;SDS011;3687;47.648;8.204;2022-08-19T09:31:21;4.37;;;4.00;;
7291;SDS011;3687;47.648;8.204;2022-08-19T09:33:49;4.53;;;3.90;;
7291;SDS011;3687;47.648;8.204;2022-08-19T09:36:16;4.40;;;4.10;;
7291;SDS011;3687;47.648;8.204;2022-08-19T09:38:43;3.83;;;3.53;;
7291;SDS011;3687;47.648;8.204;2022-08-19T09:41:13;4.27;;;3.87;;
7291;SDS011;3687;47.648;8.204;2022-08-19T09:43:41;4.33;;;3.93;;
7291;SDS011;3687;47.648;8.204;2022-08-19T09:46:10;5.30;;;3.77;;
7291;SDS011;3687;47.648;8.204;2022-08-19T09:48:37;4.60;;;3.80;;
7291;SDS011;3687;47.648;8.204;2022-08-19T09:51:22;3.83;;;3.57;;
7291;SDS011;3687;47.648;8.204;2022-08-19T09:53:51;4.70;;;4.30;;
7291;SDS011;3687;47.648;8.204;2022-08-19T09:56:21;4.63;;;4.23;;
7291;SDS011;3687;47.648;8.204;2022-08-19T09:58:47;4.20;;;3.83;;
7291;SDS011;3687;47.648;8.204;2022-08-19T10:01:21;3.50;;;3.30;;
7291;SDS011;3687;47.648;8.204;2022-08-19T10:03:52;4.10;;;3.80;;
7291;SDS011;3687;47.648;8.204;2022-08-19T10:06:21;4.70;;;4.20;;
7291;SDS011;3687;47.648;8.204;2022-08-19T10:08:49;3.97;;;3.67;;
7291;SDS011;3687;47.648;8.204;2022-08-19T10:11:16;3.93;;;3.63;;
7291;SDS011;3687;47.648;8.204;2022-08-19T10:13:44;4.03;;;3.80;;
7291;SDS011;3687;47.648;8.204;2022-08-19T10:16:12;4.17;;;3.87;;
7291;SDS011;3687;47.648;8.204;2022-08-19T10:18:39;4.00;;;3.70;;
7291;SDS011;3687;47.648;8.204;2022-08-19T10:21:11;3.97;;;3.67;;
7291;SDS011;3687;47.648;8.204;2022-08-19T10:23:39;3.73;;;3.53;;
7291;SDS011;3687;47.648;8.204;2022-08-19T10:26:09;4.27;;;3.87;;
7291;SDS011;3687;47.648;8.204;2022-08-19T10:28:36;4.03;;;3.73;;
7291;SDS011;3687;47.648;8.204;2022-08-19T10:31:13;4.80;;;4.10;;
7291;SDS011;3687;47.648;8.204;2022-08-19T10:33:41;4.07;;;3.77;;
7291;SDS011;3687;47.648;8.204;2022-08-19T10:36:09;4.00;;;3.70;;
7291;SDS011;3687;47.648;8.204;2022-08-19T10:38:39;3.97;;;3.60;;
7291;SDS011;3687;47.648;8.204;2022-08-19T10:41:13;4.40;;;4.00;;
7291;SDS011;3687;47.648;8.204;2022-08-19T10:43:41;3.87;;;3.57;;
7291;SDS011;3687;47.648;8.204;2022-08-19T10:46:08;3.70;;;3.40;;
7291;SDS011;3687;47.648;8.204;2022-08-19T10:48:35;4.20;;;3.90;;
7291;SDS011;3687;47.648;8.204;2022-08-19T10:51:01;3.83;;;3.53;;
7291;SDS011;3687;47.648;8.204;2022-08-19T10:53:46;3.93;;;3.63;;
7291;SDS011;3687;47.648;8.204;2022-08-19T10:56:12;3.80;;;3.50;;
7291;SDS011;3687;47.648;8.204;2022-08-19T10:58:56;4.13;;;3.73;;
7291;SDS011;3687;47.648;8.204;2022-08-19T11:01:22;3.90;;;3.60;;
7291;SDS011;3687;47.648;8.204;2022-08-19T11:03:49;3.67;;;3.40;;
7291;SDS011;3687;47.648;8.204;2022-08-19T11:06:15;3.87;;;3.57;;
7291;SDS011;3687;47.648;8.204;2022-08-19T11:08:40;3.93;;;3.63;;
7291;SDS011;3687;47.648;8.204;2022-08-19T11:11:06;3.93;;;3.63;;
7291;SDS011;3687;47.648;8.204;2022-08-19T11:13:34;3.90;;;3.60;;
7291;SDS011;3687;47.648;8.204;2022-08-19T11:18:28;3.80;;;3.50;;
7291;SDS011;3687;47.648;8.204;2022-08-19T11:20:53;3.50;;;3.30;;
7291;SDS011;3687;47.648;8.204;2022-08-19T11:23:19;3.93;;;3.63;;
7291;SDS011;3687;47.648;8.204;2022-08-19T11:25:45;3.83;;;3.53;;
7291;SDS011;3687;47.648;8.204;2022-08-19T11:28:11;3.80;;;3.50;;
7291;SDS011;3687;47.648;8.204;2022-08-19T11:30:38;3.90;;;3.60;;
7291;SDS011;3687;47.648;8.204;2022-08-19T11:33:04;4.00;;;3.70;;
7291;SDS011;3687;47.648;8.204;2022-08-19T11:35:29;3.57;;;3.37;;
7291;SDS011;3687;47.648;8.204;2022-08-19T11:37:55;5.00;;;3.47;;
7291;SDS011;3687;47.648;8.204;2022-08-19T11:40:26;3.53;;;3.33;;
7291;SDS011;3687;47.648;8.204;2022-08-19T11:42:52;3.40;;;3.10;;
7291;SDS011;3687;47.648;8.204;2022-08-19T11:45:21;3.83;;;3.53;;
7291;SDS011;3687;47.648;8.204;2022-08-19T11:47:51;4.10;;;3.70;;
7291;SDS011;3687;47.648;8.204;2022-08-19T11:50:17;3.83;;;3.57;;
7291;SDS011;3687;47.648;8.204;2022-08-19T11:52:43;3.60;;;3.40;;
7291;SDS011;3687;47.648;8.204;2022-08-19T11:55:10;3.83;;;3.53;;
7291;SDS011;3687;47.648;8.204;2022-08-19T11:57:37;3.47;;;3.17;;
7291;SDS011;3687;47.648;8.204;2022-08-19T12:00:03;3.87;;;3.57;;
7291;SDS011;3687;47.648;8.204;2022-08-19T12:02:31;3.57;;;3.27;;
7291;SDS011;3687;47.648;8.204;2022-08-19T12:04:57;3.43;;;3.23;;
7291;SDS011;3687;47.648;8.204;2022-08-19T12:07:22;4.17;;;3.87;;
7291;SDS011;3687;47.648;8.204;2022-08-19T12:09:49;4.03;;;3.73;;
7291;SDS011;3687;47.648;8.204;2022-08-19T12:12:15;3.40;;;3.20;;
7291;SDS011;3687;47.648;8.204;2022-08-19T12:14:41;3.60;;;3.30;;
7291;SDS011;3687;47.648;8.204;2022-08-19T12:17:06;3.30;;;3.10;;
7291;SDS011;3687;47.648;8.204;2022-08-19T12:19:35;3.67;;;3.37;;
7291;SDS011;3687;47.648;8.204;2022-08-19T12:22:01;3.50;;;3.30;;
7291;SDS011;3687;47.648;8.204;2022-08-19T12:24:30;3.50;;;3.30;;
7291;SDS011;3687;47.648;8.204;2022-08-19T12:26:57;3.60;;;3.40;;
7291;SDS011;3687;47.648;8.204;2022-08-19T12:29:23;3.40;;;3.10;;
7291;SDS011;3687;47.648;8.204;2022-08-19T12:31:53;3.43;;;3.13;;
7291;SDS011;3687;47.648;8.204;2022-08-19T12:34:25;3.50;;;3.20;;
7291;SDS011;3687;47.648;8.204;2022-08-19T12:36:51;3.17;;;2.87;;
7291;SDS011;3687;47.648;8.204;2022-08-19T12:39:17;3.40;;;3.20;;
7291;SDS011;3687;47.648;8.204;2022-08-19T12:41:43;3.77;;;3.47;;
7291;SDS011;3687;47.648;8.204;2022-08-19T12:44:08;3.50;;;3.30;;
7291;SDS011;3687;47.648;8.204;2022-08-19T12:46:34;3.90;;;3.60;;
7291;SDS011;3687;47.648;8.204;2022-08-19T12:49:00;3.57;;;3.27;;
7291;SDS011;3687;47.648;8.204;2022-08-19T12:51:26;4.00;;;3.70;;
7291;SDS011;3687;47.648;8.204;2022-08-19T12:53:51;3.50;;;3.20;;
7291;SDS011;3687;47.648;8.204;2022-08-19T12:56:17;3.03;;;2.83;;
7291;SDS011;3687;47.648;8.204;2022-08-19T12:58:43;3.20;;;3.00;;
7291;SDS011;3687;47.648;8.204;2022-08-19T13:01:15;3.53;;;3.23;;
7291;SDS011;3687;47.648;8.204;2022-08-19T13:03:42;3.33;;;3.10;;
7291;SDS011;3687;47.648;8.204;2022-08-19T13:06:09;3.20;;;3.00;;
7291;SDS011;3687;47.648;8.204;2022-08-19T13:08:35;3.50;;;3.20;;
7291;SDS011;3687;47.648;8.204;2022-08-19T13:11:11;3.90;;;3.60;;
7291;SDS011;3687;47.648;8.204;2022-08-19T13:13:39;3.57;;;3.27;;
7291;SDS011;3687;47.648;8.204;2022-08-19T13:16:07;3.50;;;3.30;;
7291;SDS011;3687;47.648;8.204;2022-08-19T13:18:34;3.67;;;3.37;;
7291;SDS011;3687;47.648;8.204;2022-08-19T13:21:07;3.60;;;3.40;;
7291;SDS011;3687;47.648;8.204;2022-08-19T13:23:34;3.47;;;3.27;;
7291;SDS011;3687;47.648;8.204;2022-08-19T13:26:02;3.40;;;3.20;;
7291;SDS011;3687;47.648;8.204;2022-08-19T13:28:30;3.70;;;3.30;;
7291;SDS011;3687;47.648;8.204;2022-08-19T13:31:19;3.80;;;3.50;;
7291;SDS011;3687;47.648;8.204;2022-08-19T13:34:05;3.40;;;3.20;;
7291;SDS011;3687;47.648;8.204;2022-08-19T13:36:34;3.30;;;3.10;;
7291;SDS011;3687;47.648;8.204;2022-08-19T13:39:01;4.10;;;3.80;;
7291;SDS011;3687;47.648;8.204;2022-08-19T13:41:27;4.23;;;3.37;;
7291;SDS011;3687;47.648;8.204;2022-08-19T13:43:53;3.40;;;3.20;;
7291;SDS011;3687;47.648;8.204;2022-08-19T13:46:19;3.23;;;3.03;;
7291;SDS011;3687;47.648;8.204;2022-08-19T13:48:45;3.30;;;3.10;;
7291;SDS011;3687;47.648;8.204;2022-08-19T13:51:13;3.50;;;3.20;;
7291;SDS011;3687;47.648;8.204;2022-08-19T13:53:41;3.87;;;3.57;;
7291;SDS011;3687;47.648;8.204;2022-08-19T13:56:14;3.13;;;2.93;;
7291;SDS011;3687;47.648;8.204;2022-08-19T13:58:41;3.93;;;3.63;;
7291;SDS011;3687;47.648;8.204;2022-08-19T14:01:08;3.40;;;3.10;;
7291;SDS011;3687;47.648;8.204;2022-08-19T14:03:34;3.30;;;3.10;;
7291;SDS011;3687;47.648;8.204;2022-08-19T14:06:00;3.47;;;3.23;;
7291;SDS011;3687;47.648;8.204;2022-08-19T14:08:27;3.57;;;3.30;;
7291;SDS011;3687;47.648;8.204;2022-08-19T14:10:53;3.33;;;3.13;;
7291;SDS011;3687;47.648;8.204;2022-08-19T14:13:20;3.43;;;3.23;;
7291;SDS011;3687;47.648;8.204;2022-08-19T14:15:46;3.43;;;3.23;;
7291;SDS011;3687;47.648;8.204;2022-08-19T14:18:13;3.43;;;3.13;;
7291;SDS011;3687;47.648;8.204;2022-08-19T14:20:39;3.90;;;3.60;;
7291;SDS011;3687;47.648;8.204;2022-08-19T14:23:05;3.50;;;3.30;;
7291;SDS011;3687;47.648;8.204;2022-08-19T14:25:31;3.40;;;3.10;;
7291;SDS011;3687;47.648;8.204;2022-08-19T14:27:58;3.43;;;3.23;;
7291;SDS011;3687;47.648;8.204;2022-08-19T14:30:26;3.13;;;2.93;;
7291;SDS011;3687;47.648;8.204;2022-08-19T14:32:55;3.67;;;3.40;;
7291;SDS011;3687;47.648;8.204;2022-08-19T14:35:21;3.50;;;3.20;;
7291;SDS011;3687;47.648;8.204;2022-08-19T14:37:48;3.50;;;3.20;;
7291;SDS011;3687;47.648;8.204;2022-08-19T14:40:15;3.57;;;3.30;;
7291;SDS011;3687;47.648;8.204;2022-08-19T14:42:45;4.10;;;3.70;;
7291;SDS011;3687;47.648;8.204;2022-08-19T14:45:12;3.67;;;3.47;;
7291;SDS011;3687;47.648;8.204;2022-08-19T14:47:38;3.77;;;3.47;;
7291;SDS011;3687;47.648;8.204;2022-08-19T14:50:05;3.53;;;3.30;;
7291;SDS011;3687;47.648;8.204;2022-08-19T14:52:32;3.73;;;3.47;;
7291;SDS011;3687;47.648;8.204;2022-08-19T14:54:58;3.73;;;3.47;;
7291;SDS011;3687;47.648;8.204;2022-08-19T14:57:23;3.77;;;3.47;;
7291;SDS011;3687;47.648;8.204;2022-08-19T14:59:49;3.27;;;3.07;;
7291;SDS011;3687;47.648;8.204;2022-08-19T15:02:14;3.33;;;3.13;;
7291;SDS011;3687;47.648;8.204;2022-08-19T15:04:40;3.17;;;2.97;;
7291;SDS011;3687;47.648;8.204;2022-08-19T15:07:06;3.50;;;3.30;;
7291;SDS011;3687;47.648;8.204;2022-08-19T15:09:32;3.30;;;3.10;;
7291;SDS011;3687;47.648;8.204;2022-08-19T15:11:58;3.40;;;3.10;;
7291;SDS011;3687;47.648;8.204;2022-08-19T15:14:25;3.40;;;3.20;;
7291;SDS011;3687;47.648;8.204;2022-08-19T15:16:51;3.50;;;3.30;;
7291;SDS011;3687;47.648;8.204;2022-08-19T15:19:17;3.60;;;3.30;;
7291;SDS011;3687;47.648;8.204;2022-08-19T15:21:43;3.20;;;3.00;;
7291;SDS011;3687;47.648;8.204;2022-08-19T15:24:08;3.00;;;2.80;;
7291;SDS011;3687;47.648;8.204;2022-08-19T15:26:34;3.40;;;3.10;;
7291;SDS011;3687;47.648;8.204;2022-08-19T15:29:00;3.33;;;3.13;;
7291;SDS011;3687;47.648;8.204;2022-08-19T15:31:27;3.60;;;3.30;;
7291;SDS011;3687;47.648;8.204;2022-08-19T15:33:52;3.70;;;3.40;;
7291;SDS011;3687;47.648;8.204;2022-08-19T15:36:22;3.00;;;2.80;;